Strona główna
METAR-TAF:

METAR-TAF

Lotnisko :

Čáslav, Czechy

Szerokość geograficzna: 49-56-23N, Długość geograficzna: 15-22-55E, wysokość: 242 m

Aktualna obserwacja pogody

Raport powstał 36 minut temu, godzina 09:00 UTC
Wiatr 8 kt od północno-północny wschód
Temperatura -9°C
Wilgotność 62%
Ciśnienie 1027 hPa
Widzialność 10 km lub więcej
Mało chmury na wysokości 2600 ft

METAR: LKCV 250900Z 02008KT 9999 FEW026 M09/M15 Q1027 NOSIG

czas: 10:36 (09:36 UTC)

Prognoza

Raport powstał 4 godziny i 36 minut temu, godzina 05:00 UTC
Prognoza ważna od 25 godzina 06 UTC do 26 godzina 06 UTC
Wiatr 8 kt od północno-północny wschód
Widzialność 10 km lub więcej
Brak chmur poniżej 1500 m i brak chmur cumulonimbus
Przejściowo
od 25 godzina 09 UTC do 25 godzina 18 UTC
Przerywane chmury na wysokości 3000 ft

TAF: LKCV 250500Z 2506/2606 03008KT CAVOK TEMPO 2509/2518 BKN030

Obserwacja i prognoza pogody dla ponad 4000 lotnisk (raport METAR i TAF).

Dostępne stacje oznaczono żółtymi i czerwonymi punktami na mapie.

Najedź kursorem aby zobaczyć nazwę stacji.

Kliknij aby zobaczyć obserwacje i prognozy pogody.

Aby zmienić mapę: kliknij na zielony przycisk z czarnym krzyżykiem, aby powiększyć; na zielony przycisk z myślnikiem, aby pomniejszyć; na zielone strzałki, aby przejść do map sąsiednich.


METAR-TAF: